Weather at Tiksi Airport

Public forecast

Using degrees Celsius for public forecast. Weather courtesy of forecast.io.

Current aviation weather report (METAR) for Tiksi Airport

Report is more than 6 hours old.

Retrieved 2013/07/19 07:30 UTC (8 years ago):

UEST 190730Z 03004MPS 9999 BKN024 OVC130 15/11 Q1013 NOSIG RMK QFE759 21010060

Aviation forecast (TAF) for Tiksi Airport

Forecast is more than 12 hours old.

Retrieved 2013/07/19 06:21 UTC (8 years ago):

TAF UEST 190455Z 1906/2006 35005MPS 9999 BKN010 OVC100 TEMPO 1906/1909 2200 BR OVC004